Time;durP1;ratioP1;P1;durP2;ratioP2;P2;SDS_P1;SDS_P2;PMS_P1;PMS_P2;Temp;Humidity;BMP_temperature;BMP_pressure;BME280_temperature;BME280_humidity;BME280_pressure;Samples;Min_cycle;Max_cycle;Signal;HPM_P1;HPM_P2
2022/12/22 03:27:43;;;;;;;13.40;12.77;;;11.20;99.90;;;;;;6210192;23;20373;-74
2022/12/22 03:30:10;;;;;;;12.70;12.20;;;11.20;99.90;;;;;;6209843;23;20405;-74
2022/12/22 03:32:38;;;;;;;13.10;12.60;;;11.20;99.90;;;;;;6210278;23;20417;-75
2022/12/22 03:35:06;;;;;;;12.37;11.93;;;11.20;99.90;;;;;;6210338;23;20852;-75
2022/12/22 03:37:32;;;;;;;13.47;13.03;;;11.20;99.90;;;;;;6210384;23;20433;-74
2022/12/22 03:39:59;;;;;;;14.87;14.37;;;11.20;99.90;;;;;;6209371;23;20437;-74
2022/12/22 03:47:55;;;;;;;14.70;14.20;;;10.90;99.90;;;;;;6177762;23;20407;-75
2022/12/22 03:50:21;;;;;;;13.60;13.20;;;10.90;99.90;;;;;;6209784;23;20404;-75
2022/12/22 03:52:48;;;;;;;14.20;13.70;;;10.90;99.90;;;;;;6209548;23;20868;-75
2022/12/22 03:55:15;;;;;;;13.70;13.20;;;10.90;99.90;;;;;;6209712;23;20423;-75
2022/12/22 03:57:42;;;;;;;14.73;14.20;;;11.00;99.90;;;;;;6209615;23;20710;-75
2022/12/22 04:00:10;;;;;;;12.80;12.30;;;11.10;99.90;;;;;;6209307;23;20412;-74
2022/12/22 04:02:37;;;;;;;12.33;11.83;;;11.20;99.90;;;;;;6209157;23;20510;-76
2022/12/22 04:05:06;;;;;;;13.03;12.37;;;11.30;99.90;;;;;;6209442;23;20412;-75
2022/12/22 04:07:32;;;;;;;12.87;12.47;;;11.30;99.90;;;;;;6210184;23;20419;-75
2022/12/22 04:12:55;;;;;;;13.73;13.23;;;11.30;99.90;;;;;;6209210;23;20367;-75
2022/12/22 04:15:23;;;;;;;14.17;13.70;;;11.40;99.90;;;;;;6209796;23;20397;-75
2022/12/22 04:17:50;;;;;;;12.67;12.20;;;11.30;99.90;;;;;;6209953;23;20424;-75
2022/12/22 04:20:19;;;;;;;13.73;13.23;;;11.30;99.90;;;;;;6209236;23;20411;-75
2022/12/22 04:22:46;;;;;;;12.70;12.30;;;11.30;99.90;;;;;;6209293;23;20440;-75
2022/12/22 04:25:13;;;;;;;13.97;13.27;;;11.30;99.90;;;;;;6209633;23;20412;-75
2022/12/22 04:27:40;;;;;;;13.80;13.30;;;11.40;99.90;;;;;;6209708;23;20413;-75
2022/12/22 04:30:08;;;;;;;14.27;13.77;;;11.40;99.90;;;;;;6209674;23;20413;-75
2022/12/22 04:32:35;;;;;;;14.80;14.30;;;11.40;99.90;;;;;;6209894;23;20401;-76
2022/12/22 04:35:02;;;;;;;13.33;12.93;;;11.50;99.90;;;;;;6209540;23;20419;-76
2022/12/22 04:37:30;;;;;;;16.50;15.90;;;11.50;99.90;;;;;;6209468;23;20435;-76
2022/12/22 04:39:57;;;;;;;18.03;17.43;;;11.40;99.90;;;;;;6209027;23;20436;-76
2022/12/22 04:42:24;;;;;;;20.50;19.60;;;11.30;99.90;;;;;;6209389;23;20436;-75
2022/12/22 04:44:52;;;;;;;21.50;20.50;;;11.20;99.90;;;;;;6209689;23;20416;-76
2022/12/22 04:47:19;;;;;;;20.50;19.70;;;11.10;99.90;;;;;;6209241;23;20419;-76
2022/12/22 04:49:45;;;;;;;19.10;18.40;;;11.00;99.90;;;;;;6208962;23;20913;-75
2022/12/22 04:52:12;;;;;;;18.77;18.00;;;11.00;99.90;;;;;;6208993;23;20508;-75
2022/12/22 04:54:40;;;;;;;20.10;19.30;;;11.10;99.90;;;;;;6209756;23;20429;-77
2022/12/22 04:57:07;;;;;;;18.63;17.93;;;11.10;99.90;;;;;;6211104;23;20428;-75
2022/12/22 04:59:34;;;;;;;18.33;17.63;;;11.10;99.90;;;;;;6210576;23;20896;-74
2022/12/22 05:02:00;;;;;;;17.00;16.40;;;11.20;99.90;;;;;;6210795;23;20440;-73
2022/12/22 05:04:27;;;;;;;15.97;15.47;;;11.20;99.90;;;;;;6210546;23;20413;-74
2022/12/22 05:06:54;;;;;;;15.20;14.60;;;11.20;99.90;;;;;;6210524;23;20416;-74
2022/12/22 05:09:20;;;;;;;14.57;14.07;;;11.30;99.90;;;;;;6211303;23;20413;-74
2022/12/22 05:11:48;;;;;;;13.90;13.40;;;11.30;99.90;;;;;;6211007;23;20420;-74
2022/12/22 05:14:15;;;;;;;14.10;13.50;;;11.50;99.90;;;;;;6210418;23;20416;-74
2022/12/22 05:16:42;;;;;;;14.00;13.40;;;11.70;99.90;;;;;;6212091;23;20415;-74
2022/12/22 05:19:08;;;;;;;13.63;13.13;;;11.80;99.90;;;;;;6210675;23;20404;-75
2022/12/22 05:21:35;;;;;;;14.47;13.67;;;11.90;99.90;;;;;;6211310;23;20405;-76
2022/12/22 05:24:02;;;;;;;12.70;12.10;;;12.00;99.90;;;;;;6210673;23;20440;-76
2022/12/22 05:26:29;;;;;;;13.50;13.00;;;12.10;99.90;;;;;;6210924;23;20428;-75
2022/12/22 05:28:57;;;;;;;13.20;12.70;;;12.10;99.90;;;;;;6211021;23;20728;-74
2022/12/22 05:31:25;;;;;;;13.90;13.30;;;12.20;99.90;;;;;;6210108;23;20401;-74
2022/12/22 05:33:52;;;;;;;13.47;12.87;;;12.20;99.90;;;;;;6210536;23;20412;-75
2022/12/22 05:36:19;;;;;;;14.70;13.90;;;12.30;99.90;;;;;;6210968;23;20756;-75
2022/12/22 05:38:46;;;;;;;13.90;13.10;;;12.20;99.90;;;;;;6210097;23;20968;-74
2022/12/22 05:41:13;;;;;;;15.50;14.50;;;12.10;99.90;;;;;;6210171;23;20740;-75
2022/12/22 05:43:40;;;;;;;15.97;14.70;;;12.10;99.90;;;;;;6210356;23;20444;-75
2022/12/22 05:46:09;;;;;;;14.20;13.70;;;11.90;99.90;;;;;;6210830;23;20400;-75
2022/12/22 05:48:37;;;;;;;14.00;13.50;;;11.90;99.90;;;;;;6210808;23;20409;-75
2022/12/22 05:51:03;;;;;;;13.93;13.17;;;11.90;99.90;;;;;;6210921;23;20746;-75
2022/12/22 05:53:30;;;;;;;14.23;13.63;;;11.90;99.90;;;;;;6209989;23;20405;-74
2022/12/22 05:55:57;;;;;;;14.07;13.47;;;11.90;99.90;;;;;;6210340;23;20427;-74
2022/12/22 05:58:24;;;;;;;14.73;13.70;;;12.00;99.90;;;;;;6210507;23;20439;-74
2022/12/22 06:00:50;;;;;;;13.00;12.30;;;12.00;99.90;;;;;;6210650;23;20413;-74
2022/12/22 06:03:18;;;;;;;14.33;13.60;;;12.00;99.90;;;;;;6210225;23;20441;-75
2022/12/22 06:05:45;;;;;;;15.30;14.40;;;12.00;99.90;;;;;;6210195;23;20412;-75
2022/12/22 06:08:12;;;;;;;13.93;13.23;;;11.90;99.90;;;;;;6210116;23;20757;-75
2022/12/22 06:10:38;;;;;;;14.83;14.23;;;11.80;99.90;;;;;;6210202;23;20902;-75
2022/12/22 06:13:05;;;;;;;14.93;14.33;;;11.70;99.90;;;;;;6210715;23;20411;-75
2022/12/22 06:15:32;;;;;;;15.37;14.47;;;11.70;99.90;;;;;;6210557;23;20420;-75
2022/12/22 06:17:58;;;;;;;14.17;13.63;;;11.60;99.90;;;;;;6210372;23;20420;-75
2022/12/22 06:20:26;;;;;;;14.13;13.43;;;11.60;99.90;;;;;;6210334;23;20765;-75
2022/12/22 06:22:53;;;;;;;15.63;14.70;;;11.50;99.90;;;;;;6210223;23;20441;-75
2022/12/22 06:25:20;;;;;;;13.93;13.43;;;11.50;99.90;;;;;;6210304;23;20405;-75
2022/12/22 06:27:47;;;;;;;15.03;14.20;;;11.50;99.90;;;;;;6210601;23;20416;-75
2022/12/22 06:30:15;;;;;;;14.43;13.73;;;11.50;99.90;;;;;;6210251;23;20401;-75
2022/12/22 06:32:41;;;;;;;13.87;12.87;;;11.50;99.90;;;;;;6209854;23;20405;-75
2022/12/22 06:35:09;;;;;;;14.33;13.53;;;11.50;99.90;;;;;;6210672;23;20408;-76
2022/12/22 06:37:37;;;;;;;14.27;13.77;;;11.50;99.90;;;;;;6210469;23;20443;-75
2022/12/22 06:40:05;;;;;;;12.80;12.30;;;11.50;99.90;;;;;;6210467;23;20532;-75
2022/12/22 06:45:17;;;;;;;13.67;12.97;;;11.50;99.90;;;;;;6210402;23;20408;-75
2022/12/22 06:47:43;;;;;;;14.10;13.13;;;11.50;99.90;;;;;;6209933;23;20412;-75
2022/12/22 06:50:10;;;;;;;13.77;13.07;;;11.50;99.90;;;;;;6210174;23;20439;-76
2022/12/22 06:52:39;;;;;;;13.57;12.87;;;11.50;99.90;;;;;;6210078;23;20400;-76
2022/12/22 06:55:06;;;;;;;14.03;13.33;;;11.60;99.90;;;;;;6209984;23;20880;-76
2022/12/22 06:57:33;;;;;;;15.40;14.00;;;11.60;99.90;;;;;;6210352;23;20442;-75
2022/12/22 06:59:59;;;;;;;14.60;13.43;;;11.70;99.90;;;;;;6209780;23;20413;-75
2022/12/22 07:02:26;;;;;;;14.53;13.60;;;11.70;99.90;;;;;;6209768;23;20413;-75
2022/12/22 07:04:53;;;;;;;14.40;13.60;;;11.80;99.90;;;;;;6209686;23;20409;-75
2022/12/22 07:07:19;;;;;;;13.70;13.00;;;11.80;99.90;;;;;;6209956;23;20409;-76
2022/12/22 07:09:47;;;;;;;14.37;13.50;;;11.70;99.90;;;;;;6209609;23;20930;-76
2022/12/22 07:12:14;;;;;;;14.90;14.20;;;11.70;99.90;;;;;;6209741;23;20451;-76
2022/12/22 07:14:41;;;;;;;14.40;13.60;;;11.60;99.90;;;;;;6209489;23;20436;-76
2022/12/22 07:17:08;;;;;;;14.07;13.33;;;11.60;99.90;;;;;;6209232;23;20416;-77
2022/12/22 07:19:34;;;;;;;14.90;13.80;;;11.60;99.90;;;;;;6209909;23;20742;-76
2022/12/22 07:22:01;;;;;;;16.93;15.60;;;11.60;99.90;;;;;;6209727;23;20409;-76
2022/12/22 07:24:28;;;;;;;14.10;13.40;;;11.50;99.90;;;;;;6209495;23;20463;-76
2022/12/22 07:26:56;;;;;;;13.33;12.67;;;11.50;99.90;;;;;;6210391;23;20905;-81
2022/12/22 07:29:23;;;;;;;13.07;12.47;;;11.50;99.90;;;;;;6209748;23;20409;-83
2022/12/22 07:31:50;;;;;;;13.97;13.07;;;11.50;99.90;;;;;;6210120;23;20457;-83
2022/12/22 07:34:17;;;;;;;15.47;14.47;;;11.50;99.90;;;;;;6210110;23;20427;-85
2022/12/22 07:36:43;;;;;;;14.13;13.23;;;11.40;99.90;;;;;;6209830;23;20405;-85
2022/12/22 07:39:11;;;;;;;14.63;13.63;;;11.60;99.90;;;;;;6209914;23;20452;-85
2022/12/22 07:44:23;;;;;;;13.73;12.73;;;11.80;99.90;;;;;;6209686;23;20506;-82
2022/12/22 07:46:50;;;;;;;16.23;15.20;;;11.80;99.90;;;;;;6210101;23;20412;-79
2022/12/22 07:52:01;;;;;;;16.50;15.90;;;11.70;99.90;;;;;;6209763;23;20523;-76
2022/12/22 07:54:28;;;;;;;19.20;18.37;;;11.60;99.90;;;;;;6209759;23;20419;-78
2022/12/22 07:56:55;;;;;;;20.77;19.13;;;11.50;99.90;;;;;;6207629;23;20408;-82
2022/12/22 07:59:23;;;;;;;22.20;20.63;;;11.40;99.90;;;;;;6208397;23;20408;-79
2022/12/22 08:01:50;;;;;;;19.63;18.60;;;11.40;99.90;;;;;;6208667;23;20424;-82
2022/12/22 08:04:17;;;;;;;21.20;19.70;;;11.40;99.90;;;;;;6209267;23;20444;-81
2022/12/22 08:06:43;;;;;;;20.23;18.90;;;11.40;99.90;;;;;;6209549;23;20409;-84
2022/12/22 08:09:14;;;;;;;19.57;18.10;;;11.30;99.90;;;;;;6209589;23;20412;-79
2022/12/22 08:11:41;;;;;;;15.97;15.20;;;11.50;99.90;;;;;;6209507;23;20559;-80
2022/12/22 08:14:08;;;;;;;15.93;14.93;;;11.80;99.90;;;;;;6209636;23;20428;-82
2022/12/22 08:16:36;;;;;;;14.67;13.50;;;12.10;99.90;;;;;;6210015;23;20415;-80
2022/12/22 08:19:02;;;;;;;14.87;14.10;;;12.50;99.90;;;;;;6210263;23;20429;-82
2022/12/22 08:21:29;;;;;;;13.90;12.57;;;12.80;99.90;;;;;;6209641;23;20825;-85
2022/12/22 08:23:56;;;;;;;12.40;11.80;;;13.00;99.90;;;;;;6210355;23;20544;-84
2022/12/22 08:26:27;;;;;;;13.83;12.80;;;12.80;99.90;;;;;;6207422;23;20428;-79
2022/12/22 08:29:02;;;;;;;13.97;13.07;;;12.70;99.90;;;;;;6209348;23;20393;-79
2022/12/22 08:31:30;;;;;;;13.30;12.70;;;12.50;99.90;;;;;;6211017;23;20392;-77
2022/12/22 08:34:01;;;;;;;13.23;12.53;;;12.70;99.90;;;;;;6210856;23;20842;-78
2022/12/22 08:36:29;;;;;;;14.43;13.53;;;13.20;99.90;;;;;;6211198;23;20740;-80
2022/12/22 08:38:56;;;;;;;14.40;13.07;;;13.00;99.90;;;;;;6210756;23;20713;-78
2022/12/22 13:52:02;;;;;;;11.70;11.20;;;14.00;99.90;;;;;;6186713;23;20489;-74
2022/12/22 13:54:33;;;;;;;12.57;11.97;;;14.10;99.90;;;;;;6210589;23;20409;-74
2022/12/22 13:57:01;;;;;;;13.40;12.80;;;14.20;99.90;;;;;;6203534;23;20405;-76
2022/12/22 13:59:30;;;;;;;12.30;11.80;;;14.30;99.90;;;;;;6210713;23;20417;-76
2022/12/22 14:01:59;;;;;;;12.67;12.20;;;14.20;99.90;;;;;;6210743;23;20520;-77
2022/12/22 14:04:26;;;;;;;12.50;12.00;;;14.40;99.90;;;;;;6210755;23;20468;-76
2022/12/22 14:06:54;;;;;;;12.50;12.00;;;14.30;99.90;;;;;;6210486;23;20412;-75
2022/12/22 14:09:24;;;;;;;11.53;11.13;;;14.20;99.90;;;;;;6208341;23;20557;-76
2022/12/22 14:11:55;;;;;;;11.87;11.20;;;14.20;99.90;;;;;;6210689;23;20412;-76
2022/12/22 14:14:25;;;;;;;11.53;11.03;;;14.10;99.90;;;;;;6210518;23;20508;-75
2022/12/22 14:16:53;;;;;;;11.17;10.77;;;14.30;99.90;;;;;;6210496;23;20421;-76
2022/12/22 14:19:22;;;;;;;11.70;11.20;;;14.30;99.90;;;;;;6210867;23;20819;-75
2022/12/22 14:21:58;;;;;;;12.37;11.77;;;14.30;99.90;;;;;;6210493;23;20673;-75
2022/12/22 14:24:31;;;;;;;11.27;10.77;;;14.40;99.90;;;;;;6211153;23;20429;-75
2022/12/22 14:26:58;;;;;;;11.80;11.10;;;14.30;99.90;;;;;;6210710;23;20404;-75
2022/12/22 14:29:28;;;;;;;12.13;11.43;;;14.20;99.90;;;;;;6210823;23;20412;-76
2022/12/22 14:31:56;;;;;;;12.57;11.90;;;14.30;99.90;;;;;;6211124;23;20401;-75
2022/12/22 14:34:25;;;;;;;12.47;11.63;;;14.30;99.90;;;;;;6210372;23;20864;-77
2022/12/22 14:36:52;;;;;;;13.70;13.10;;;14.30;99.90;;;;;;6211086;23;20719;-74
2022/12/22 14:39:22;;;;;;;10.53;10.03;;;14.10;99.90;;;;;;6211095;23;20504;-77
2022/12/22 14:41:53;;;;;;;12.67;11.77;;;14.10;99.90;;;;;;6211421;23;20504;-75
2022/12/22 14:44:22;;;;;;;12.30;11.50;;;13.90;99.90;;;;;;6210717;23;20428;-75
2022/12/22 14:47:05;;;;;;;13.57;12.67;;;13.90;99.90;;;;;;6210258;23;20417;-75
2022/12/22 14:49:32;;;;;;;13.60;12.70;;;13.90;99.90;;;;;;6210463;23;20460;-76
2022/12/22 14:52:05;;;;;;;12.80;11.83;;;13.90;99.90;;;;;;6208310;23;20432;-76
2022/12/22 14:54:32;;;;;;;11.67;11.10;;;14.00;99.90;;;;;;6209596;23;20409;-75
2022/12/22 14:57:04;;;;;;;14.57;13.80;;;14.00;99.90;;;;;;6210318;23;20498;-77
2022/12/22 14:59:31;;;;;;;12.57;11.97;;;13.90;99.90;;;;;;6209600;23;20889;-75
2022/12/22 15:02:03;;;;;;;13.57;12.77;;;13.70;99.90;;;;;;6205553;23;20445;-74
2022/12/22 15:04:30;;;;;;;13.90;13.03;;;13.60;99.90;;;;;;6209707;23;20424;-75
2022/12/22 15:07:16;;;;;;;14.40;13.37;;;13.40;99.90;;;;;;6210141;23;20417;-75
2022/12/22 15:09:42;;;;;;;12.43;11.83;;;13.30;99.90;;;;;;6210086;23;20888;-74
2022/12/22 15:12:14;;;;;;;14.47;13.67;;;13.10;99.90;;;;;;6209591;23;20779;-76
2022/12/22 15:14:41;;;;;;;13.30;12.63;;;13.20;99.90;;;;;;6210135;23;20439;-76
2022/12/22 15:17:19;;;;;;;13.60;12.87;;;13.10;99.90;;;;;;6209380;23;20436;-75
2022/12/22 15:19:46;;;;;;;16.33;15.13;;;13.10;99.90;;;;;;6209463;23;20397;-75
2022/12/22 15:22:12;;;;;;;16.10;14.80;;;13.00;99.90;;;;;;6209468;23;20430;-75
2022/12/22 15:24:39;;;;;;;14.20;13.40;;;12.90;99.90;;;;;;6209280;23;20518;-75
2022/12/22 15:27:06;;;;;;;15.07;14.07;;;12.90;99.90;;;;;;6210988;23;20478;-74
2022/12/22 15:32:31;;;;;;;14.30;13.40;;;12.70;99.90;;;;;;6195188;23;20524;-75
2022/12/22 15:35:00;;;;;;;15.17;14.07;;;12.60;99.90;;;;;;6209698;23;20412;-77
2022/12/22 15:37:26;;;;;;;14.27;13.57;;;12.50;99.90;;;;;;6209495;23;20443;-75
2022/12/22 15:39:53;;;;;;;14.60;13.53;;;12.50;99.90;;;;;;6209465;23;20404;-75
2022/12/22 15:42:20;;;;;;;15.73;14.40;;;12.40;99.90;;;;;;6209646;23;20400;-75
2022/12/22 15:44:48;;;;;;;14.63;13.87;;;12.40;99.90;;;;;;6209555;23;20447;-74
2022/12/22 15:47:14;;;;;;;14.07;13.17;;;12.30;99.90;;;;;;6209126;23;20423;-75
2022/12/22 15:49:41;;;;;;;14.33;13.63;;;12.30;99.90;;;;;;6209636;23;20432;-75
2022/12/22 15:52:11;;;;;;;13.50;12.67;;;12.30;99.90;;;;;;6208806;23;20472;-75
2022/12/22 15:54:38;;;;;;;14.33;13.37;;;12.30;99.90;;;;;;6209387;23;20393;-75
2022/12/22 15:57:05;;;;;;;13.67;12.87;;;12.40;99.90;;;;;;6208892;23;20416;-75
2022/12/22 15:59:32;;;;;;;12.60;11.90;;;12.30;99.90;;;;;;6209283;23;20404;-75
2022/12/22 16:02:00;;;;;;;13.97;13.20;;;12.30;99.90;;;;;;6207225;23;20413;-75
2022/12/22 16:04:27;;;;;;;14.33;13.50;;;12.30;99.90;;;;;;6209537;23;20433;-75
2022/12/22 16:06:54;;;;;;;14.17;12.97;;;12.30;99.90;;;;;;6208775;23;20424;-75
2022/12/22 16:09:23;;;;;;;14.30;13.10;;;12.30;99.90;;;;;;6209154;23;20416;-76
2022/12/22 16:11:50;;;;;;;14.20;13.60;;;12.40;99.90;;;;;;6209325;23;20804;-75
2022/12/22 16:14:19;;;;;;;14.77;13.90;;;12.30;99.90;;;;;;6209168;23;20412;-76
2022/12/22 16:16:47;;;;;;;15.23;14.20;;;12.30;99.90;;;;;;6209384;23;20706;-76
2022/12/22 16:19:16;;;;;;;15.57;14.37;;;12.10;99.90;;;;;;6209561;23;20434;-76
2022/12/22 16:21:44;;;;;;;13.80;13.10;;;12.10;99.90;;;;;;6209523;23;20438;-75
2022/12/22 16:24:22;;;;;;;14.83;13.77;;;12.00;99.90;;;;;;6209756;23;20445;-75
2022/12/22 16:26:49;;;;;;;16.00;14.83;;;11.90;99.90;;;;;;6209718;23;20393;-75
2022/12/22 16:29:17;;;;;;;15.20;14.07;;;11.80;99.90;;;;;;6209380;23;20424;-76
2022/12/22 16:31:44;;;;;;;15.27;14.27;;;11.80;99.90;;;;;;6209553;23;20416;-76
2022/12/22 16:34:11;;;;;;;15.57;14.50;;;11.80;99.90;;;;;;6209377;23;20397;-75
2022/12/22 16:36:39;;;;;;;14.17;13.37;;;11.70;99.90;;;;;;6208642;23;20796;-75
2022/12/22 16:39:06;;;;;;;14.87;13.70;;;11.70;99.90;;;;;;6209129;23;20439;-76
2022/12/22 16:41:33;;;;;;;15.73;14.27;;;11.80;99.90;;;;;;6208966;23;20419;-75
2022/12/22 16:44:01;;;;;;;15.00;14.03;;;11.70;99.90;;;;;;6207228;23;20412;-76
2022/12/22 16:46:27;;;;;;;13.53;12.63;;;11.70;99.90;;;;;;6209927;23;20393;-76
2022/12/22 16:48:56;;;;;;;14.50;13.30;;;11.70;99.90;;;;;;6209595;23;20405;-76
2022/12/22 16:51:25;;;;;;;13.60;12.90;;;11.60;99.90;;;;;;6210416;23;20487;-75
2022/12/22 16:53:54;;;;;;;14.13;12.90;;;11.60;99.90;;;;;;6210926;23;20413;-76
2022/12/22 16:56:25;;;;;;;12.97;12.10;;;11.60;99.90;;;;;;6210677;23;20641;-76
2022/12/22 16:58:52;;;;;;;13.23;12.20;;;11.60;99.90;;;;;;6210973;23;20745;-76
2022/12/22 17:01:26;;;;;;;13.57;12.60;;;11.70;99.90;;;;;;6210622;23;20681;-76
2022/12/22 17:03:53;;;;;;;14.07;13.00;;;11.70;99.90;;;;;;6211006;23;20388;-75
2022/12/22 17:06:20;;;;;;;13.50;12.33;;;11.70;99.90;;;;;;6210214;23;20495;-76
2022/12/22 17:08:47;;;;;;;13.40;12.23;;;11.70;99.90;;;;;;6210781;23;20507;-76
2022/12/22 17:11:21;;;;;;;16.73;15.33;;;11.70;99.90;;;;;;6210833;23;20417;-76
2022/12/22 17:13:48;;;;;;;14.93;13.27;;;11.80;99.90;;;;;;6210674;23;20511;-75
2022/12/22 17:16:20;;;;;;;14.60;13.40;;;11.80;99.90;;;;;;6211086;23;20405;-75
2022/12/22 17:18:47;;;;;;;15.53;14.00;;;11.80;99.90;;;;;;6210433;23;20414;-75
2022/12/22 17:21:16;;;;;;;15.67;14.07;;;11.80;99.90;;;;;;6210975;23;20703;-75
2022/12/22 17:23:46;;;;;;;16.63;15.03;;;11.90;99.90;;;;;;6210745;23;20905;-75
2022/12/22 17:26:15;;;;;;;15.17;13.50;;;11.80;99.90;;;;;;6210494;23;20531;-75
2022/12/22 17:28:44;;;;;;;14.10;13.30;;;11.80;99.90;;;;;;6210678;23;20404;-75
2022/12/22 17:31:15;;;;;;;13.37;12.50;;;11.80;99.90;;;;;;6210891;23;20405;-76
2022/12/22 17:33:42;;;;;;;14.67;13.43;;;11.80;99.90;;;;;;6210366;23;20656;-75
2022/12/22 17:36:17;;;;;;;15.40;13.90;;;11.80;99.90;;;;;;6209947;23;20884;-75
2022/12/22 17:38:44;;;;;;;16.13;14.63;;;11.70;99.90;;;;;;6210625;23;20419;-76
2022/12/22 17:41:13;;;;;;;17.50;12.20;;;11.70;99.90;;;;;;6210704;23;20449;-75
2022/12/22 17:43:40;;;;;;;16.67;15.17;;;11.70;99.90;;;;;;6211032;23;20734;-74
2022/12/22 17:46:14;;;;;;;14.57;13.37;;;11.80;99.90;;;;;;6210156;23;20467;-76
2022/12/22 17:48:40;;;;;;;17.43;15.63;;;11.80;99.90;;;;;;6210956;23;20393;-75
2022/12/22 17:51:16;;;;;;;16.20;14.53;;;11.80;99.90;;;;;;6210341;23;20445;-75
2022/12/22 17:53:43;;;;;;;15.80;14.30;;;11.70;99.90;;;;;;6210746;23;20388;-75
2022/12/22 17:56:13;;;;;;;16.37;15.00;;;11.60;99.90;;;;;;6210323;23;20459;-76
2022/12/22 17:58:42;;;;;;;17.43;15.70;;;11.60;99.90;;;;;;6210135;23;20424;-76
2022/12/22 18:01:21;;;;;;;20.77;16.20;;;11.60;99.90;;;;;;6209597;23;20411;-77
2022/12/22 18:03:48;;;;;;;18.13;16.53;;;11.50;99.90;;;;;;6208712;23;20393;-76
2022/12/22 18:06:16;;;;;;;19.47;16.90;;;11.40;99.90;;;;;;6209571;23;20953;-77
2022/12/22 18:08:43;;;;;;;18.20;16.40;;;11.30;99.90;;;;;;6210286;23;20419;-77
2022/12/22 18:11:10;;;;;;;17.40;15.77;;;11.30;99.90;;;;;;6209893;23;20939;-77
2022/12/22 18:13:37;;;;;;;17.33;14.57;;;11.20;99.90;;;;;;6210315;23;20420;-77
2022/12/22 18:16:04;;;;;;;15.53;14.33;;;11.20;99.90;;;;;;6210304;23;20420;-77
2022/12/22 18:18:32;;;;;;;16.33;14.73;;;11.20;99.90;;;;;;6210074;23;20495;-77
2022/12/22 18:20:59;;;;;;;16.07;14.80;;;11.20;99.90;;;;;;6209955;23;20412;-76
2022/12/22 18:23:29;;;;;;;21.33;16.10;;;11.30;99.90;;;;;;6210385;23;20427;-77
2022/12/22 18:25:56;;;;;;;15.70;14.17;;;11.30;99.90;;;;;;6209993;23;20485;-75
2022/12/22 18:28:22;;;;;;;15.83;14.57;;;11.30;99.90;;;;;;6210125;23;20769;-77
2022/12/22 18:30:49;;;;;;;15.83;14.30;;;11.30;99.90;;;;;;6210253;23;20439;-78
2022/12/22 18:33:16;;;;;;;16.70;15.10;;;11.40;99.90;;;;;;6210416;23;20420;-77
2022/12/22 18:35:44;;;;;;;19.17;17.17;;;11.40;99.90;;;;;;6210356;23;20412;-76
2022/12/22 18:38:24;;;;;;;17.47;15.70;;;11.40;99.90;;;;;;6210601;23;20419;-76
2022/12/22 18:40:51;;;;;;;17.27;15.80;;;11.40;99.90;;;;;;6210661;23;20416;-75
2022/12/22 18:43:18;;;;;;;16.37;14.70;;;11.40;99.90;;;;;;6213928;23;20984;-76
2022/12/22 18:45:44;;;;;;;17.60;15.90;;;11.40;99.90;;;;;;6213543;23;20532;-76
2022/12/22 18:48:11;;;;;;;17.33;15.93;;;11.30;99.90;;;;;;6213745;23;20415;-76
2022/12/22 18:50:39;;;;;;;19.93;14.57;;;11.30;99.90;;;;;;6211863;23;20445;-77
2022/12/22 18:53:21;;;;;;;16.93;15.60;;;11.40;99.90;;;;;;6211887;23;20404;-77
2022/12/22 18:55:48;;;;;;;16.00;14.40;;;11.40;99.90;;;;;;6210264;23;20726;-76
2022/12/22 18:58:15;;;;;;;19.27;14.73;;;11.30;99.90;;;;;;6209995;23;20427;-74
2022/12/22 19:00:42;;;;;;;17.37;14.37;;;11.30;99.90;;;;;;6210325;23;20416;-76
2022/12/22 19:03:17;;;;;;;16.77;14.97;;;11.30;99.90;;;;;;6209582;23;20451;-75
2022/12/22 19:05:44;;;;;;;16.87;15.50;;;11.40;99.90;;;;;;6209530;23;20459;-75
2022/12/22 19:08:14;;;;;;;16.53;15.13;;;11.50;99.90;;;;;;6210598;23;20562;-75
2022/12/22 19:10:44;;;;;;;15.83;14.57;;;11.50;99.90;;;;;;6210127;23;20432;-76
2022/12/22 19:13:19;;;;;;;16.93;15.33;;;11.60;99.90;;;;;;6206934;23;20417;-75
2022/12/22 19:15:46;;;;;;;15.93;14.47;;;11.60;99.90;;;;;;6209717;23;20385;-75
2022/12/22 19:18:16;;;;;;;16.87;15.20;;;11.60;99.90;;;;;;6209474;23;20427;-75
2022/12/22 19:20:43;;;;;;;16.57;15.10;;;11.50;99.90;;;;;;6209848;23;20409;-75
2022/12/22 19:23:14;;;;;;;23.87;16.97;;;11.40;99.90;;;;;;6209474;23;20412;-77
2022/12/22 19:25:42;;;;;;;17.17;13.33;;;11.30;99.90;;;;;;6209821;23;20438;-75
2022/12/22 19:28:18;;;;;;;15.30;14.20;;;11.30;99.90;;;;;;6209795;23;20404;-76
2022/12/22 19:30:45;;;;;;;16.20;14.50;;;11.30;99.90;;;;;;6209723;23;20404;-77
2022/12/22 19:33:19;;;;;;;18.47;14.30;;;11.20;99.90;;;;;;6209706;23;20421;-74
2022/12/22 19:35:45;;;;;;;16.57;14.77;;;11.20;99.90;;;;;;6209416;23;20476;-74
2022/12/22 19:38:20;;;;;;;17.10;15.10;;;11.30;99.90;;;;;;6209648;23;20450;-74
2022/12/22 19:40:48;;;;;;;20.87;14.60;;;11.30;99.90;;;;;;6209776;23;20392;-74
2022/12/22 19:43:16;;;;;;;17.27;15.57;;;11.30;99.90;;;;;;6209667;23;20412;-75
2022/12/22 19:45:42;;;;;;;16.20;14.70;;;11.30;99.90;;;;;;6209590;23;20436;-75
2022/12/22 19:48:16;;;;;;;17.73;15.93;;;11.30;99.90;;;;;;6209738;23;20416;-75
2022/12/22 19:50:43;;;;;;;21.30;15.87;;;11.30;99.90;;;;;;6209357;23;20447;-75
2022/12/22 19:53:11;;;;;;;17.40;16.00;;;11.30;99.90;;;;;;6209658;23;20408;-78
2022/12/22 19:55:43;;;;;;;15.33;14.00;;;11.30;99.90;;;;;;6208577;23;20427;-77
2022/12/22 19:58:16;;;;;;;15.73;14.53;;;11.30;99.90;;;;;;6208754;23;20890;-75
2022/12/22 20:00:43;;;;;;;16.83;15.17;;;11.20;99.90;;;;;;6209969;23;20393;-75
2022/12/22 20:03:12;;;;;;;15.73;14.60;;;11.20;99.90;;;;;;6209247;23;20455;-75
2022/12/22 20:05:39;;;;;;;15.57;14.47;;;11.10;99.90;;;;;;6209503;23;20436;-75
2022/12/22 20:08:05;;;;;;;16.10;14.70;;;11.10;99.90;;;;;;6208525;23;20722;-75
2022/12/22 20:10:33;;;;;;;16.93;15.77;;;11.10;99.90;;;;;;6208925;23;20707;-78
2022/12/22 20:13:03;;;;;;;18.93;17.33;;;11.10;99.90;;;;;;6208799;23;20412;-77
2022/12/22 20:15:33;;;;;;;19.27;17.70;;;11.10;99.90;;;;;;6209004;23;20396;-76
2022/12/22 20:18:01;;;;;;;19.37;17.97;;;11.10;99.90;;;;;;6209067;23;20409;-76
2022/12/22 20:20:32;;;;;;;18.93;17.47;;;11.10;99.90;;;;;;6209602;23;20416;-76
2022/12/22 20:23:04;;;;;;;18.00;16.40;;;11.10;99.90;;;;;;6209252;23;20429;-74
2022/12/22 20:25:36;;;;;;;18.75;16.95;;;11.10;99.90;;;;;;6208784;23;20416;-75
2022/12/22 20:28:13;;;;;;;17.47;16.23;;;11.20;99.90;;;;;;6210718;23;20257;-74
2022/12/22 20:30:40;;;;;;;17.40;16.30;;;11.20;99.90;;;;;;6211426;23;20703;-73
2022/12/22 20:33:06;;;;;;;18.77;17.40;;;11.20;99.90;;;;;;6211042;23;20446;-74
2022/12/22 20:35:35;;;;;;;18.27;17.00;;;11.20;99.90;;;;;;6210385;23;20401;-73
2022/12/22 20:38:02;;;;;;;19.50;18.17;;;11.20;99.90;;;;;;6210239;23;20421;-74
2022/12/22 20:40:30;;;;;;;19.93;18.93;;;11.20;99.90;;;;;;6210823;23;20404;-74
2022/12/22 20:42:57;;;;;;;20.90;19.57;;;11.10;99.90;;;;;;6210984;23;20424;-74
2022/12/22 20:45:29;;;;;;;20.07;18.70;;;11.10;99.90;;;;;;6211020;23;20486;-74
2022/12/22 20:47:55;;;;;;;20.20;18.90;;;11.10;99.90;;;;;;6211207;23;20400;-73
2022/12/22 20:50:24;;;;;;;20.50;18.90;;;11.10;99.90;;;;;;6210701;23;20439;-73
2022/12/22 20:52:52;;;;;;;18.90;17.73;;;11.10;99.90;;;;;;6210366;23;20450;-73
2022/12/22 20:55:20;;;;;;;18.10;16.93;;;11.10;99.90;;;;;;6210393;23;20443;-75
2022/12/22 20:57:49;;;;;;;19.37;17.97;;;11.10;99.90;;;;;;6210695;23;20787;-73
2022/12/22 21:00:18;;;;;;;21.20;19.50;;;11.00;99.90;;;;;;6207858;23;20409;-73
2022/12/22 21:02:46;;;;;;;17.93;16.53;;;11.10;99.90;;;;;;6206621;23;20409;-73
2022/12/22 21:05:14;;;;;;;17.23;15.80;;;11.10;99.90;;;;;;6209396;23;20404;-73
2022/12/22 21:07:42;;;;;;;15.70;14.67;;;11.10;99.90;;;;;;6210459;23;20487;-73
2022/12/22 21:10:16;;;;;;;14.77;13.67;;;11.10;99.90;;;;;;6210322;23;20432;-73
2022/12/22 21:12:42;;;;;;;14.77;13.80;;;11.10;99.90;;;;;;6210366;23;20393;-74
2022/12/22 21:15:16;;;;;;;13.87;13.00;;;11.20;99.90;;;;;;6210118;23;20735;-74
2022/12/22 21:17:42;;;;;;;14.13;13.30;;;11.30;99.90;;;;;;6210651;23;20779;-74
2022/12/22 21:20:17;;;;;;;14.60;13.73;;;11.30;99.90;;;;;;6210143;23;20420;-75
2022/12/22 21:22:43;;;;;;;14.00;13.23;;;11.30;99.90;;;;;;6210596;23;20458;-74
2022/12/22 21:25:10;;;;;;;12.80;12.20;;;11.30;99.90;;;;;;6210283;23;20412;-75
2022/12/22 21:27:38;;;;;;;14.37;13.43;;;11.30;99.90;;;;;;6210137;23;20796;-75
2022/12/22 21:30:13;;;;;;;15.67;14.87;;;11.30;99.90;;;;;;6209591;23;20812;-73